createdAt,value
2022-09-04T00:02:17.103Z,99288.00
2022-09-04T00:05:07.015Z,99288.00
2022-09-04T00:08:01.983Z,99285.20
2022-09-04T00:10:50.065Z,99285.00
2022-09-04T00:13:33.289Z,99280.20
2022-09-04T00:16:17.252Z,99280.00
2022-09-04T00:19:03.167Z,99276.40
2022-09-04T00:21:49.632Z,99277.80
2022-09-04T00:24:31.187Z,99273.20
2022-09-04T00:27:15.453Z,99272.60
2022-09-04T00:30:03.337Z,99274.20
2022-09-04T00:32:51.710Z,99278.60
2022-09-04T00:35:32.508Z,99281.80
2022-09-04T00:38:17.844Z,99283.20
2022-09-04T00:41:10.092Z,99291.00
2022-09-04T00:44:28.237Z,99289.40
2022-09-04T00:47:51.572Z,99284.00
2022-09-04T00:51:11.376Z,99277.80
2022-09-04T00:54:28.708Z,99275.40
2022-09-04T00:58:02.022Z,99286.40
2022-09-04T01:00:38.313Z,99284.80
2022-09-04T01:04:11.121Z,99289.60
2022-09-04T01:07:02.289Z,99288.80
2022-09-04T01:10:20.840Z,99291.40
2022-09-04T01:13:09.447Z,99286.60
2022-09-04T01:15:56.806Z,99286.60
2022-09-04T01:18:48.534Z,99286.40
2022-09-04T01:22:12.420Z,99287.80
2022-09-04T01:25:33.992Z,99284.80
2022-09-04T01:28:20.631Z,99279.80
2022-09-04T01:31:08.694Z,99277.20
2022-09-04T01:34:04.170Z,99280.60
2022-09-04T01:36:51.256Z,99283.20
2022-09-04T01:39:33.208Z,99278.60
2022-09-04T01:42:23.574Z,99279.20
2022-09-04T01:45:01.345Z,99281.80
2022-09-04T01:47:48.208Z,99279.80
2022-09-04T01:50:33.012Z,99281.20
2022-09-04T01:53:25.159Z,99282.20
2022-09-04T01:56:16.084Z,99286.00
2022-09-04T01:59:03.279Z,99283.00
2022-09-04T02:01:53.863Z,99287.60
2022-09-04T02:04:41.288Z,99292.20
2022-09-04T02:07:33.853Z,99293.60
2022-09-04T02:10:31.336Z,99292.20
2022-09-04T02:13:23.607Z,99292.00
2022-09-04T02:16:20.212Z,99291.60
2022-09-04T02:19:13.591Z,99290.80
2022-09-04T02:22:07.817Z,99294.40
2022-09-04T02:25:01.679Z,99293.00
2022-09-04T02:27:52.369Z,99284.00
2022-09-04T02:30:32.306Z,99286.60
2022-09-04T02:33:22.620Z,99289.80
2022-09-04T02:36:09.838Z,99287.80
2022-09-04T02:39:00.848Z,99282.40
2022-09-04T02:41:59.077Z,99280.80
2022-09-04T02:44:57.429Z,99276.80
2022-09-04T02:47:50.577Z,99276.60
2022-09-04T02:50:58.119Z,99278.00
2022-09-04T02:53:51.168Z,99274.00
2022-09-04T02:56:47.640Z,99277.80
2022-09-04T02:59:59.938Z,99277.20
2022-09-04T03:02:43.768Z,99288.00
2022-09-04T03:05:27.653Z,99288.60
2022-09-04T03:08:13.672Z,99287.20
2022-09-04T03:10:59.237Z,99279.60
2022-09-04T03:13:47.053Z,99276.60
2022-09-04T03:16:35.125Z,99276.40
2022-09-04T03:19:23.532Z,99274.60
2022-09-04T03:22:08.753Z,99278.20
2022-09-04T03:25:06.301Z,99280.40
2022-09-04T03:27:42.735Z,99280.60
2022-09-04T03:30:19.639Z,99279.80
2022-09-04T03:33:06.830Z,99274.00
2022-09-04T03:35:53.919Z,99273.00
2022-09-04T03:38:42.707Z,99269.80
2022-09-04T03:41:31.587Z,99274.00
2022-09-04T03:44:27.932Z,99277.20
2022-09-04T03:47:17.630Z,99285.60
2022-09-04T03:50:17.352Z,99285.40
2022-09-04T03:53:06.480Z,99282.40
2022-09-04T03:56:17.223Z,99283.80
2022-09-04T03:59:08.280Z,99285.80
2022-09-04T04:02:01.680Z,99289.20
2022-09-04T04:05:24.705Z,99287.00
2022-09-04T04:08:43.158Z,99289.20
2022-09-04T04:12:03.077Z,99291.40
2022-09-04T04:15:04.717Z,99294.60
2022-09-04T04:18:06.559Z,99303.80
2022-09-04T04:20:55.197Z,99308.40
2022-09-04T04:24:09.720Z,99311.20
2022-09-04T04:27:14.559Z,99317.20
2022-09-04T04:30:15.120Z,99316.00
2022-09-04T04:33:43.415Z,99321.40
2022-09-04T04:36:36.752Z,99315.00
2022-09-04T04:39:30.440Z,99313.40
2022-09-04T04:42:22.405Z,99314.80
2022-09-04T04:45:42.321Z,99325.80
2022-09-04T04:49:33.600Z,99324.20
2022-09-04T04:52:40.556Z,99322.80
2022-09-04T04:55:38.845Z,99331.40
2022-09-04T04:58:54.038Z,99330.60
2022-09-04T05:01:57.441Z,99337.20
2022-09-04T05:04:50.859Z,99342.60
2022-09-04T05:07:41.911Z,99343.80
2022-09-04T05:10:26.946Z,99346.40
2022-09-04T05:13:17.889Z,99347.20
2022-09-04T05:16:09.286Z,99348.20
2022-09-04T05:18:59.755Z,99350.40
2022-09-04T05:21:45.768Z,99356.00
2022-09-04T05:24:36.480Z,99360.40
2022-09-04T05:27:48.576Z,99366.00
2022-09-04T05:30:39.305Z,99366.20
2022-09-04T05:33:31.658Z,99360.20
2022-09-04T05:36:20.278Z,99363.20
2022-09-04T05:39:10.629Z,99368.60
2022-09-04T05:42:22.976Z,99372.60
2022-09-04T05:45:22.410Z,99371.40
2022-09-04T05:48:18.093Z,99374.80
2022-09-04T05:51:43.937Z,99380.20
2022-09-04T05:54:58.290Z,99387.40
2022-09-04T05:57:56.005Z,99391.00
2022-09-04T06:00:44.529Z,99394.80
2022-09-04T06:03:58.922Z,99395.20
2022-09-04T06:06:48.564Z,99400.00
2022-09-04T06:09:47.737Z,99400.20
2022-09-04T06:13:02.740Z,99403.00
2022-09-04T06:16:03.229Z,99398.40
2022-09-04T06:19:08.034Z,99401.60
2022-09-04T06:22:33.651Z,99404.20
2022-09-04T06:25:41.087Z,99403.00
2022-09-04T06:29:08.431Z,99405.00
2022-09-04T06:32:32.854Z,99402.80
2022-09-04T06:35:33.427Z,99409.00
2022-09-04T06:38:42.403Z,99408.80
2022-09-04T06:41:50.900Z,99408.80
2022-09-04T06:44:55.680Z,99413.80
2022-09-04T06:47:50.918Z,99418.60
2022-09-04T06:50:40.745Z,99420.00
2022-09-04T06:53:38.930Z,99422.80
2022-09-04T06:56:42.703Z,99429.20
2022-09-04T06:59:56.929Z,99428.80
2022-09-04T07:03:07.005Z,99437.40
2022-09-04T07:06:00.889Z,99441.80
2022-09-04T07:09:02.068Z,99438.80
2022-09-04T07:12:09.772Z,99436.80
2022-09-04T07:15:25.693Z,99436.20
2022-09-04T07:18:28.068Z,99437.00
2022-09-04T07:21:16.876Z,99435.60
2022-09-04T07:24:04.193Z,99436.80
2022-09-04T07:26:55.432Z,99434.60
2022-09-04T07:29:47.172Z,99432.80
2022-09-04T07:32:31.983Z,99432.40
2022-09-04T07:35:22.342Z,99436.60
2022-09-04T07:38:08.742Z,99438.00
2022-09-04T07:40:53.406Z,99442.80
2022-09-04T07:43:44.608Z,99444.00
2022-09-04T07:46:35.302Z,99438.60
2022-09-04T07:49:25.699Z,99444.80
2022-09-04T07:52:13.362Z,99441.20
2022-09-04T07:55:22.712Z,99442.00
2022-09-04T07:58:56.299Z,99451.00
2022-09-04T08:01:57.275Z,99444.80
2022-09-04T08:05:18.278Z,99450.80
2022-09-04T08:08:42.470Z,99449.00
2022-09-04T08:12:27.277Z,99451.20
2022-09-04T08:15:22.099Z,99447.00
2022-09-04T08:18:25.972Z,99453.20
2022-09-04T08:21:28.197Z,99460.80
2022-09-04T08:24:44.040Z,99476.00
2022-09-04T08:27:51.758Z,99477.60
2022-09-04T08:30:34.044Z,99484.00
2022-09-04T08:34:07.789Z,99477.40
2022-09-04T08:36:58.865Z,99479.80
2022-09-04T08:39:51.977Z,99477.80
2022-09-04T08:43:14.199Z,99486.00
2022-09-04T08:46:45.433Z,99488.60
2022-09-04T08:50:09.272Z,99494.40
2022-09-04T08:53:38.982Z,99492.80
2022-09-04T08:56:31.427Z,99501.80
2022-09-04T09:00:00.322Z,99509.60
2022-09-04T09:03:50.360Z,99508.40
2022-09-04T09:07:15.894Z,99507.20
2022-09-04T09:10:38.675Z,99504.00
2022-09-04T09:14:24.585Z,99497.40
2022-09-04T09:17:26.176Z,99498.20
2022-09-04T09:20:33.109Z,99498.80
2022-09-04T09:23:43.677Z,99504.20
2022-09-04T09:26:39.691Z,99506.00
2022-09-04T09:30:03.868Z,99502.40
2022-09-04T09:33:45.351Z,99502.40
2022-09-04T09:37:03.018Z,99510.80
2022-09-04T09:40:28.137Z,99517.60
2022-09-04T09:43:46.707Z,99522.60
2022-09-04T09:47:11.425Z,99521.20
2022-09-04T09:50:46.666Z,99523.80
2022-09-04T09:54:18.356Z,99524.80
2022-09-04T09:57:41.037Z,99525.80
2022-09-04T10:00:21.372Z,99526.20
2022-09-04T10:04:14.391Z,99518.60
2022-09-04T10:07:54.917Z,99523.40
2022-09-04T10:11:19.249Z,99517.40
2022-09-04T10:14:54.691Z,99519.40
2022-09-04T10:18:33.102Z,99516.40
2022-09-04T10:22:10.552Z,99511.80
2022-09-04T10:25:46.976Z,99517.20
2022-09-04T10:32:51.351Z,99521.40
2022-09-04T10:35:37.543Z,99523.20
2022-09-04T10:39:22.251Z,99524.40
2022-09-04T10:42:12.642Z,99529.40
2022-09-04T10:45:35.011Z,99533.00
2022-09-04T10:49:00.787Z,99534.40
2022-09-04T10:52:31.901Z,99533.00
2022-09-04T10:55:36.467Z,99531.40
2022-09-04T10:59:10.145Z,99528.40
2022-09-04T11:02:33.126Z,99532.40
2022-09-04T11:05:39.720Z,99536.60
2022-09-04T11:08:53.044Z,99538.20
2022-09-04T11:12:09.514Z,99536.20
2022-09-04T11:15:37.865Z,99535.80
2022-09-04T11:19:08.387Z,99539.00
2022-09-04T11:22:47.388Z,99535.80
2022-09-04T11:26:38.249Z,99535.80
2022-09-04T11:29:44.207Z,99531.20
2022-09-04T11:32:58.411Z,99534.60
2022-09-04T11:37:00.339Z,99538.60
2022-09-04T11:40:32.362Z,99535.60
2022-09-04T11:43:40.490Z,99541.80
2022-09-04T11:47:04.381Z,99535.20
2022-09-04T11:49:59.979Z,99536.20
2022-09-04T11:53:13.317Z,99534.60
2022-09-04T11:56:34.114Z,99526.60
2022-09-04T11:59:44.352Z,99521.60
2022-09-04T12:02:57.918Z,99522.80
2022-09-04T12:06:00.378Z,99519.40
2022-09-04T12:10:29.848Z,99516.40
2022-09-04T12:13:47.269Z,99519.60
2022-09-04T12:17:11.029Z,99522.00
2022-09-04T12:20:48.179Z,99520.40
2022-09-04T12:24:40.889Z,99517.80
2022-09-04T12:28:26.817Z,99521.20
2022-09-04T12:31:32.620Z,99523.00
2022-09-04T12:34:51.384Z,99526.80
2022-09-04T12:38:03.691Z,99523.60
2022-09-04T12:40:53.724Z,99517.20
2022-09-04T12:43:53.238Z,99518.00
2022-09-04T12:46:56.210Z,99517.20
2022-09-04T12:50:16.141Z,99514.60
2022-09-04T12:53:26.628Z,99519.20
2022-09-04T12:56:13.773Z,99516.60
2022-09-04T12:59:21.533Z,99513.20
2022-09-04T13:02:12.371Z,99517.00
2022-09-04T13:05:08.217Z,99521.20
2022-09-04T13:08:03.621Z,99515.60
2022-09-04T13:10:57.717Z,99514.00
2022-09-04T13:13:51.312Z,99517.60
2022-09-04T13:16:40.122Z,99520.00
2022-09-04T13:19:36.164Z,99519.00
2022-09-04T13:22:40.815Z,99515.80
2022-09-04T13:25:32.807Z,99517.80
2022-09-04T13:28:24.463Z,99519.80
2022-09-04T13:31:27.888Z,99517.60
2022-09-04T13:34:17.846Z,99521.00
2022-09-04T13:37:09.941Z,99523.20
2022-09-04T13:40:23.024Z,99526.60
2022-09-04T13:43:47.668Z,99532.40
2022-09-04T13:46:30.941Z,99536.40
2022-09-04T13:49:15.134Z,99533.00
2022-09-04T13:52:01.219Z,99532.20
2022-09-04T13:54:44.572Z,99538.00
2022-09-04T13:57:28.081Z,99539.00
2022-09-04T14:00:09.034Z,99542.60
2022-09-04T14:02:47.676Z,99538.80
2022-09-04T14:05:26.573Z,99537.40
2022-09-04T14:08:17.371Z,99537.20
2022-09-04T14:11:31.906Z,99535.80
2022-09-04T14:15:21.551Z,99535.20
2022-09-04T14:18:21.168Z,99534.40
2022-09-04T14:21:05.600Z,99535.20
2022-09-04T14:24:00.324Z,99533.60
2022-09-04T14:26:50.545Z,99530.40
2022-09-04T14:29:43.156Z,99532.60
2022-09-04T14:32:34.233Z,99537.20
2022-09-04T14:35:23.134Z,99535.20
2022-09-04T14:38:26.506Z,99535.20
2022-09-04T14:41:21.601Z,99536.80
2022-09-04T14:44:16.265Z,99538.60
2022-09-04T14:47:09.695Z,99542.40
2022-09-04T14:49:57.658Z,99544.20
2022-09-04T14:52:43.660Z,99545.80
2022-09-04T14:55:27.706Z,99541.60
2022-09-04T14:58:19.544Z,99541.00
2022-09-04T15:01:11.406Z,99540.60
2022-09-04T15:03:59.407Z,99537.80
2022-09-04T15:07:07.850Z,99538.80
2022-09-04T15:09:47.510Z,99541.80
2022-09-04T15:12:34.085Z,99543.20
2022-09-04T15:15:22.346Z,99545.60
2022-09-04T15:18:16.072Z,99552.20
2022-09-04T15:21:05.163Z,99546.40
2022-09-04T15:23:53.073Z,99551.80
2022-09-04T15:26:43.426Z,99549.00
2022-09-04T15:29:35.990Z,99551.00
2022-09-04T15:32:20.262Z,99552.40
2022-09-04T15:35:16.936Z,99547.80
2022-09-04T15:38:11.434Z,99547.60
2022-09-04T15:41:19.958Z,99557.00
2022-09-04T15:44:08.596Z,99550.00
2022-09-04T15:47:00.272Z,99553.20
2022-09-04T15:49:56.739Z,99552.20
2022-09-04T15:52:51.591Z,99553.40
2022-09-04T15:55:55.891Z,99550.00
2022-09-04T15:58:50.501Z,99555.40
2022-09-04T16:01:32.339Z,99551.00
2022-09-04T16:04:23.408Z,99553.40
2022-09-04T16:07:34.492Z,99556.20
2022-09-04T16:10:24.733Z,99554.40
2022-09-04T16:13:28.162Z,99555.80
2022-09-04T16:16:15.401Z,99553.60
2022-09-04T16:19:08.460Z,99564.00
2022-09-04T16:22:01.923Z,99562.60
2022-09-04T16:24:47.372Z,99557.00
2022-09-04T16:27:31.526Z,99558.40
2022-09-04T16:30:11.642Z,99558.20
2022-09-04T16:32:51.084Z,99557.40
2022-09-04T16:35:32.879Z,99556.60
2022-09-04T16:38:24.314Z,99565.80
2022-09-04T16:41:11.112Z,99563.80
2022-09-04T16:44:21.285Z,99566.60
2022-09-04T16:47:16.582Z,99575.60
2022-09-04T16:50:04.352Z,99573.20
2022-09-04T16:53:13.706Z,99576.00
2022-09-04T16:56:07.518Z,99569.80
2022-09-04T16:59:20.051Z,99576.00
2022-09-04T17:02:11.509Z,99583.00
2022-09-04T17:04:55.910Z,99585.80
2022-09-04T17:07:56.160Z,99589.20
2022-09-04T17:10:51.985Z,99585.80
2022-09-04T17:13:38.946Z,99589.00
2022-09-04T17:16:25.738Z,99590.40
2022-09-04T17:19:02.563Z,99594.40
2022-09-04T17:29:03.411Z,99594.40
2022-09-04T17:29:04.171Z,99602.20
2022-09-04T17:29:07.873Z,99606.60
2022-09-04T17:31:58.551Z,99609.40
2022-09-04T17:40:32.743Z,99614.20
2022-09-04T17:40:56.466Z,99614.20
2022-09-04T17:41:39.792Z,99618.00
2022-09-04T17:44:57.664Z,99619.60
2022-09-04T17:47:42.967Z,99623.40
2022-09-04T17:50:23.485Z,99629.20
2022-09-04T17:53:12.146Z,99626.40
2022-09-04T17:56:15.943Z,99631.00
2022-09-04T17:59:05.521Z,99634.20
2022-09-04T18:01:54.811Z,99635.00
2022-09-04T18:04:47.338Z,99631.60
2022-09-04T18:08:07.712Z,99634.00
2022-09-04T18:10:39.536Z,99638.40
2022-09-04T18:13:38.075Z,99639.80
2022-09-04T18:17:12.880Z,99640.40
2022-09-04T18:20:11.528Z,99648.20
2022-09-04T18:26:00.708Z,99664.00
2022-09-04T18:28:52.745Z,99666.00
2022-09-04T18:37:07.037Z,99668.00
2022-09-04T18:37:21.675Z,99668.20
2022-09-04T18:37:56.556Z,99667.40
2022-09-04T18:41:43.355Z,99673.80
2022-09-04T18:50:21.408Z,99673.20
2022-09-04T18:50:50.778Z,99679.60
2022-09-04T18:53:41.169Z,99689.00
2022-09-04T18:56:27.752Z,99689.60
2022-09-04T18:59:12.529Z,99685.80
2022-09-04T19:02:01.835Z,99686.00
2022-09-04T19:04:59.598Z,99691.40
2022-09-04T19:07:43.402Z,99689.20
2022-09-04T19:10:34.495Z,99685.80
2022-09-04T19:13:22.391Z,99683.40
2022-09-04T19:16:08.622Z,99682.20
2022-09-04T19:18:59.990Z,99684.60
2022-09-04T19:21:58.130Z,99687.80
2022-09-04T19:24:49.348Z,99683.00
2022-09-04T19:27:37.723Z,99685.60
2022-09-04T19:30:23.836Z,99687.00
2022-09-04T19:33:13.252Z,99689.20
2022-09-04T19:36:01.231Z,99693.00
2022-09-04T19:45:53.680Z,99692.80
2022-09-04T19:45:54.629Z,99697.40
2022-09-04T19:46:19.913Z,99701.60
2022-09-04T19:48:23.691Z,99700.00
2022-09-04T19:53:21.749Z,99703.80
2022-09-04T19:54:15.487Z,99709.00
2022-09-04T19:57:32.215Z,99709.40
2022-09-04T20:00:31.324Z,99705.20
2022-09-04T20:03:30.508Z,99704.20
2022-09-04T20:06:23.752Z,99704.40
2022-09-04T20:09:14.133Z,99707.80
2022-09-04T20:11:57.250Z,99706.20
2022-09-04T20:14:43.646Z,99706.20
2022-09-04T20:17:47.704Z,99708.60
2022-09-04T20:20:28.524Z,99703.00
2022-09-04T20:23:34.953Z,99706.00
2022-09-04T20:26:22.516Z,99710.00
2022-09-04T20:29:18.298Z,99714.40
2022-09-04T20:32:04.298Z,99715.60
2022-09-04T20:34:52.617Z,99712.60
2022-09-04T20:37:48.799Z,99718.60
2022-09-04T20:40:42.148Z,99718.80
2022-09-04T20:43:33.027Z,99722.20
2022-09-04T20:52:45.879Z,99718.60
2022-09-04T20:52:58.239Z,99718.80
2022-09-04T20:53:07.659Z,99721.80
2022-09-04T20:57:18.439Z,99718.40
2022-09-04T21:03:14.759Z,99715.80
2022-09-04T21:03:15.079Z,99721.00
2022-09-04T21:06:25.478Z,99723.20
2022-09-04T21:09:22.471Z,99722.00
2022-09-04T21:12:21.792Z,99719.00
2022-09-04T21:15:08.732Z,99719.40
2022-09-04T21:18:22.007Z,99720.80
2022-09-04T21:21:31.350Z,99723.00
2022-09-04T21:24:48.483Z,99725.80
2022-09-04T21:28:39.688Z,99727.00
2022-09-04T21:31:58.424Z,99731.80
2022-09-04T21:35:06.813Z,99739.40
2022-09-04T21:38:02.154Z,99740.40
2022-09-04T21:41:26.942Z,99740.20
2022-09-04T21:44:36.387Z,99737.20
2022-09-04T21:47:45.421Z,99745.60
2022-09-04T21:50:55.443Z,99754.20
2022-09-04T21:54:37.599Z,99747.40
2022-09-04T22:02:29.484Z,99746.60
2022-09-04T22:02:40.620Z,99743.20
2022-09-04T22:04:57.718Z,99749.00
2022-09-04T22:10:21.619Z,99747.40
2022-09-04T22:13:28.575Z,99750.60
2022-09-04T22:14:25.347Z,99749.60
2022-09-04T22:17:53.467Z,99750.00
2022-09-04T22:21:09.820Z,99742.40
2022-09-04T22:24:41.026Z,99742.80
2022-09-04T22:28:26.823Z,99741.60
2022-09-04T22:31:55.595Z,99743.60
2022-09-04T22:35:24.222Z,99747.00
2022-09-04T22:38:38.843Z,99746.00
2022-09-04T22:41:49.555Z,99748.60
2022-09-04T22:44:46.995Z,99748.60
2022-09-04T22:47:49.577Z,99749.40
2022-09-04T22:51:06.106Z,99749.20
2022-09-04T22:54:30.231Z,99756.60
2022-09-04T22:57:13.629Z,99754.60
2022-09-04T23:00:23.177Z,99759.40
2022-09-04T23:03:32.875Z,99759.60
2022-09-04T23:11:47.999Z,99762.60
2022-09-04T23:13:58.480Z,99760.60
2022-09-04T23:14:19.223Z,99766.60
2022-09-04T23:17:26.687Z,99775.00
2022-09-04T23:26:37.439Z,99773.20
2022-09-04T23:26:51.089Z,99770.40
2022-09-04T23:27:40.671Z,99768.20
2022-09-04T23:30:27.637Z,99764.80
2022-09-04T23:33:49.563Z,99766.40
2022-09-04T23:37:32.125Z,99764.60
2022-09-04T23:40:44.253Z,99764.60
2022-09-04T23:44:31.832Z,99764.80
2022-09-04T23:48:28.521Z,99767.60
2022-09-04T23:51:40.981Z,99760.60
2022-09-04T23:55:19.653Z,99761.20
2022-09-04T23:58:54.661Z,99760.00
